Latest Coastal Weather Observations for Wilsons Promontory

IDT60701

Issued at 2:45 pm EST Wednesday 3 September 2014 (issued every 10 minutes, with the page automatically refreshed every 10 minutes)

About coastal observations | Map of coastal stations | Coastal observations for TAS | Marine services | Other Formats
Station Details ID: 085096 Name: WILSONS PROMONTORY LIGHTHOUSE Lat: -39.13 Lon: 146.42 Height: 95.0 m
Data from the previous 72 hours. | See also: Recent months at Wilsons Promontory
Date/Time
EST
Temp

°C
Wind Pressure Rain
since 9am
mm
Weather Cloud Vis
km
Sea
Height
m
Swell
Dir
 
Speed
knots
Gust
knots
hPa Trend Height
m
Period
s
Dir
03/02:30pm 11.2 W 15 21 1019.0 - 0.0 - - - - - - -
03/02:00pm 11.4 W 14 18 1019.1 - 0.0 - - - - - - -
03/01:30pm 11.0 WSW 15 20 1019.2 - 0.0 - - - - - - -
03/01:00pm 11.1 WSW 13 18 1019.4 - 0.0 - - - - - - -
03/12:30pm 10.9 WSW 14 17 1019.8 - 0.0 - - - - - - -
03/12:00pm 11.2 WSW 13 17 1020.6 - 0.0 - - - - - - -
03/11:30am 10.9 WSW 12 15 1020.8 - 0.0 - - - - - - -
03/11:00am 11.0 WSW 12 14 1021.1 - 0.0 - - - - - - -
03/10:30am 10.8 WSW 11 14 1021.5 - 0.0 - - - - - - -
03/10:00am 10.7 SW 10 14 1021.8 - 0.0 - - - - - - -
03/09:30am 10.6 WSW 11 14 1022.0 - 0.0 - - - - - - -
03/09:00am 10.4 SW 12 16 1022.1 - 0.2 - - - - - - -
03/08:30am 10.3 SSW 7 13 1021.7 - 0.2 - - - - - - -
03/08:00am 10.0 SSW 8 16 1021.6 - 0.2 - - - - - - -
03/07:30am 10.0 S 7 12 1021.4 - 0.2 - - - - - - -
03/07:00am 9.8 S 6 11 1021.0 - 0.2 - - - - - - -
03/06:30am 9.8 S 8 16 1020.7 - 0.2 - - - - - - -
03/06:00am 9.9 WSW 10 19 1020.5 - 0.2 - - - - - - -
03/05:30am 10.0 WNW 7 13 1020.3 - 0.2 - - - - - - -
03/05:00am 9.9 W 10 16 1020.1 - 0.2 - - - - - - -
03/04:30am 9.8 N 7 22 1019.8 - 0.2 - - - - - - -
03/04:00am 9.8 SSW 11 19 1019.6 - 0.2 - - - - - - -
03/03:30am 9.9 SW 11 24 1019.5 - 0.2 - - - - - - -
03/03:01am 9.9 S 15 30 1019.3 - 0.2 - - - - - - -
03/03:00am 9.8 SSW 16 30 1019.4 - 0.2 - - - - - - -
03/02:51am 9.9 SSW 15 27 1019.1 - 0.2 - - - - - - -
03/02:49am 9.9 ENE 10 33 1019.3 - 0.2 - - - - - - -
03/02:32am 9.9 SW 20 31 1019.1 - 0.2 - - - - - - -
03/02:31am 9.9 SW 22 31 1019.0 - 0.2 - - - - - - -
03/02:30am 9.9 E 14 31 1018.9 - 0.2 - - - - - - -
03/02:29am 9.9 ENE 11 33 1019.0 - 0.2 - - - - - - -
03/02:26am 9.9 SSW 20 33 1019.0 - 0.2 - - - - - - -
03/02:22am 10.0 SSE 16 38 1019.0 - 0.2 - - - - - - -
03/02:00am 10.0 SW 28 39 1019.0 - 0.2 - - - - - - -
03/01:59am 10.0 SW 30 39 1019.1 - 0.2 - - - - - - -
03/01:30am 10.0 SW 16 28 1019.5 - 0.2 - - - - - - -
03/01:05am 10.1 SSW 15 25 1019.7 - 0.2 - - - - - - -
03/01:00am 10.1 SW 13 23 1019.9 - 0.2 - - - - - - -
03/12:30am 10.2 S 12 24 1019.7 - 0.2 - - - - - - -
03/12:21am 10.3 SW 15 25 1019.8 - 0.2 - - - - - - -
03/12:19am 10.2 N 9 25 1019.8 - 0.2 - - - - - - -
03/12:00am 10.4 SW 21 32 1019.7 - 0.2 - - - - - - -
 
Date/Time
EST
Temp

°C
Wind Pressure Rain
since 9am
mm
Weather Cloud Vis
km
Sea
Height
m
Swell
Dir
 
Speed
knots
Gust
knots
hPa Trend Height
m
Period
s
Dir
02/11:43pm 10.5 SW 15 26 1019.8 - 0.2 - - - - - - -
02/11:30pm 10.7 NE 9 28 1019.7 - 0.2 - - - - - - -
02/11:14pm 10.8 WSW 15 26 1019.6 - 0.2 - - - - - - -
02/11:00pm 10.7 NW 10 23 1019.6 - 0.2 - - - - - - -
02/10:30pm 10.7 SW 16 31 1019.7 - 0.2 - - - - - - -
02/10:04pm 10.9 SSW 15 29 1019.9 - 0.2 - - - - - - -
02/10:00pm 10.9 SW 21 29 1019.9 - 0.2 - - - - - - -
02/09:32pm 11.0 SW 17 27 1019.9 - 0.2 - - - - - - -
02/09:30pm 11.0 SW 18 27 1019.9 - 0.2 - - - - - - -
02/09:13pm 11.0 SW 23 33 1019.9 - 0.2 - - - - - - -
02/09:00pm 11.1 SW 27 32 1019.9 - 0.2 - - - - - - -
02/08:41pm 11.4 SW 16 27 1019.9 - 0.2 - - - - - - -
02/08:30pm 11.3 SW 14 27 1020.0 - 0.2 - - - - - - -
02/08:28pm 11.3 SW 17 27 1019.9 - 0.2 - - - - - - -
02/08:00pm 11.3 SW 13 24 1019.8 - 0.2 - - - - - - -
02/07:32pm 11.3 SW 15 25 1019.8 - 0.2 - - - - - - -
02/07:30pm 11.3 SE 12 22 1019.8 - 0.2 - - - - - - -
02/07:19pm 11.2 SW 15 25 1019.6 - 0.2 - - - - - - -
02/07:00pm 11.1 SW 16 23 1019.4 - 0.2 - - - - - - -
02/06:30pm 10.9 SW 15 23 1019.3 - 0.2 - - - - - - -
02/06:00pm 10.8 SW 19 23 1019.2 - 0.2 - - - - - - -
02/05:30pm 10.7 SW 19 24 1018.9 - 0.2 - - - - - - -
02/05:00pm 11.0 SW 18 25 1018.6 - 0.2 - - - - - - -
02/04:30pm 10.9 WSW 10 21 1018.3 - 0.2 - - - - - - -
02/04:00pm 11.1 W 9 16 1018.0 - 0.2 - - - - - - -
02/03:30pm 11.0 NW 8 15 1017.9 - 0.2 - - - - - - -
02/03:00pm 11.0 NNE 7 19 1017.5 - 0.2 - - - - - - -
02/02:33pm 11.0 SSW 15 25 1017.3 - 0.2 - - - - - - -
02/02:30pm 11.0 SW 17 25 1017.4 - 0.2 - - - - - - -
02/02:00pm 11.0 SW 10 20 1017.0 - 0.2 - - - - - - -
02/01:30pm 11.0 NNE 8 17 1016.9 - 0.2 - - - - - - -
02/01:00pm 11.1 NW 9 18 1016.9 - 0.2 - - - - - - -
02/12:30pm 11.2 S 12 19 1017.0 - 0.2 - - - - - - -
02/12:00pm 11.1 S 15 24 1017.0 - 0.2 - - - - - - -
02/11:30am 11.3 S 18 25 1016.7 - 0.2 - - - - - - -
02/11:00am 11.0 S 20 25 1016.6 - 0.2 - - - - - - -
02/10:43am 10.7 S 16 26 1016.4 - 0.2 - - - - - - -
02/10:30am 10.2 SW 9 11 1016.6 - 0.2 - - - - - - -
02/10:00am 10.0 S 11 15 1016.6 - 0.2 - - - - - - -
02/09:30am 9.9 S 9 17 1015.8 - 0.2 - - - - - - -
02/09:00am 10.3 S 12 16 1015.8 - 4.6 - - - - - - -
02/08:52am 10.0 S 13 19 1015.6 - 4.6 - - - - - - -
02/08:30am 10.4 SE 21 24 1015.3 - 4.4 - - - - - - -
02/08:23am 10.8 SE 21 23 1015.0 - 4.4 - - - - - - -
02/08:00am 10.8 S 9 14 1014.6 - 3.8 - - - - - - -
02/07:30am 11.0 SSW 8 13 1014.2 - 3.8 - - - - - - -
02/07:00am 10.6 S 11 17 1013.5 - 3.8 - - - - - - -
02/06:30am 10.6 S 12 18 1013.0 - 3.8 - - - - - - -
02/06:00am 10.6 S 13 22 1012.6 - 3.8 - - - - - - -
02/05:30am 10.9 WSW 10 17 1012.1 - 3.8 - - - - - - -
02/05:00am 10.9 SW 13 22 1011.5 - 3.8 - - - - - - -
02/04:30am 10.9 SW 15 23 1011.2 - 3.8 - - - - - - -
02/04:18am 10.9 SW 15 25 1011.1 - 3.8 - - - - - - -
02/04:00am 11.0 SW 11 22 1010.9 - 3.8 - - - - - - -
02/03:48am 11.0 SW 16 26 1010.6 - 3.8 - - - - - - -
02/03:30am 11.0 SW 14 24 1010.2 - 3.8 - - - - - - -
02/03:21am 11.1 ENE 9 33 1010.0 - 3.8 - - - - - - -
02/03:00am 11.1 SW 21 34 1009.9 - 3.8 - - - - - - -
02/02:55am 11.3 SSW 18 35 1009.8 - 3.8 - - - - - - -
02/02:30am 11.3 SW 30 40 1009.7 - 3.8 - - - - - - -
02/02:13am 11.4 SW 29 39 1009.7 - 3.8 - - - - - - -
02/02:00am 11.4 SW 34 41 1009.5 - 3.8 - - - - - - -
02/01:30am 11.4 SW 35 40 1009.3 - 3.8 - - - - - - -
02/01:16am 11.3 WSW 30 41 1009.1 - 3.8 - - - - - - -
02/01:00am 11.3 SW 36 42 1008.8 - 3.8 - - - - - - -
02/12:30am 11.5 WSW 32 38 1009.0 - 3.8 - - - - - - -
02/12:17am 11.5 SW 36 39 1008.7 - 3.8 - - - - - - -
02/12:11am 11.5 WSW 25 35 1009.0 - 3.8 - - - - - - -
02/12:00am 11.5 WSW 26 35 1009.4 - 3.8 - - - - - - -
 
Date/Time
EST
Temp

°C
Wind Pressure Rain
since 9am
mm
Weather Cloud Vis
km
Sea
Height
m
Swell
Dir
 
Speed
knots
Gust
knots
hPa Trend Height
m
Period
s
Dir
01/11:30pm 11.5 WSW 26 38 1008.9 - 3.8 - - - - - - -
01/11:05pm 11.6 W 24 34 1009.1 - 3.8 - - - - - - -
01/11:00pm 11.7 W 25 34 1009.1 - 3.8 - - - - - - -
01/10:37pm 11.7 W 23 33 1009.0 - 3.8 - - - - - - -
01/10:30pm 11.8 W 25 33 1008.8 - 3.8 - - - - - - -
01/10:12pm 11.7 W 24 34 1008.5 - 3.8 - - - - - - -
01/10:00pm 11.7 W 24 32 1008.7 - 3.8 - - - - - - -
01/09:30pm 11.9 WSW 27 35 1008.7 - 3.8 - - - - - - -
01/09:00pm 11.9 WSW 29 34 1008.5 - 3.8 - - - - - - -
01/08:30pm 11.8 WSW 24 32 1008.1 - 3.8 - - - - - - -
01/08:00pm 11.8 WSW 22 30 1008.3 - 3.8 - - - - - - -
01/07:30pm 11.8 W 18 27 1008.1 - 3.8 - - - - - - -
01/07:21pm 11.7 W 17 27 1008.1 - 3.8 - - - - - - -
01/07:00pm 11.5 W 20 28 1007.8 - 3.8 - - - - - - -
01/06:51pm 11.7 W 17 27 1007.6 - 3.8 - - - - - - -
01/06:30pm 11.8 W 18 25 1007.3 - 3.8 - - - - - - -
01/06:14pm 11.8 W 19 29 1006.8 - 3.8 - - - - - - -
01/06:00pm 11.8 W 18 25 1006.8 - 3.8 - - - - - - -
01/05:47pm 11.8 WSW 19 29 1006.8 - 3.8 - - - - - - -
01/05:30pm 11.7 WSW 21 28 1006.3 - 3.8 - - - - - - -
01/05:25pm 11.7 WSW 20 26 1006.3 - 3.8 - - - - - - -
01/05:03pm 11.7 WNW 18 28 1006.4 - 2.8 - - - - - - -
01/05:00pm 11.7 WNW 19 28 1006.3 - 2.4 - - - - - - -
01/04:46pm 11.6 WNW 18 28 1006.3 - 2.0 - - - - - - -
01/04:30pm 11.8 WNW 18 27 1006.2 - 1.0 - - - - - - -
01/04:11pm 11.4 WNW 15 30 1005.9 - 1.0 - - - - - - -
01/04:00pm 11.5 WNW 14 23 1006.1 - 1.0 - - - - - - -
01/03:30pm 11.5 WNW 17 34 1006.1 - 0.8 - - - - - - -
01/03:00pm 11.8 WNW 17 37 1006.1 - 0.6 - - - - - - -
01/02:57pm 11.8 W 17 37 1005.9 - 0.6 - - - - - - -
01/02:30pm 11.9 NW 14 26 1006.4 - 0.4 - - - - - - -
01/02:25pm 11.8 WNW 15 29 1006.2 - 0.4 - - - - - - -
01/02:00pm 12.3 NW 9 17 1006.2 - 0.4 - - - - - - -
01/01:30pm 12.4 WNW 11 33 1006.0 - 0.2 - - - - - - -
01/01:05pm 12.5 WNW 15 31 1006.2 - 0.0 - - - - - - -
01/01:00pm 12.9 WNW 9 26 1006.7 - 0.0 - - - - - - -
01/12:30pm 14.4 W 14 24 1006.4 - 0.0 - - - - - - -
01/12:20pm 14.5 W 15 31 1006.3 - 0.0 - - - - - - -
01/12:00pm 15.1 W 14 24 1006.6 - 0.0 - - - - - - -
01/11:30am 15.3 W 12 23 1007.1 - 0.0 - - - - - - -
01/11:00am 15.3 NW 7 14 1007.7 - 0.0 - - - - - - -
01/10:30am 15.4 SSW 6 17 1007.1 - 0.0 - - - - - - -
01/10:00am 16.3 WSW 9 16 1007.6 - 0.0 - - - - - - -
01/09:30am 17.0 W 5 8 1007.5 - 0.0 - - - - - - -
01/09:00am 16.5 NNE 5 9 1007.3 - 0.0 - - - - - - -
01/08:30am 18.1 NNW 7 17 1007.2 - 0.0 - - - - - - -
01/08:00am 16.8 N 9 13 1007.2 - 0.0 - - - - - - -
01/07:31am 17.9 N 15 39 1007.0 - 0.0 - - - - - - -
01/07:30am 17.1 N 13 31 1007.2 - 0.0 - - - - - - -
01/07:00am 15.5 NNE 14 19 1006.8 - 0.0 - - - - - - -
01/06:30am 15.0 NNE 16 21 1006.8 - 0.0 - - - - - - -
01/06:00am 16.4 NNE 12 16 1007.2 - 0.0 - - - - - - -
01/05:30am 18.3 N 8 13 1007.7 - 0.0 - - - - - - -
01/05:00am 18.6 N 9 15 1007.8 - 0.0 - - - - - - -
01/04:30am 18.8 N 11 20 1007.6 - 0.0 - - - - - - -
01/04:00am 18.5 N 10 19 1007.6 - 0.0 - - - - - - -
01/03:30am 17.4 NNE 12 16 1007.8 - 0.0 - - - - - - -
01/03:00am 18.9 N 12 21 1008.3 - 0.0 - - - - - - -
01/02:30am 18.6 N 12 17 1008.6 - 0.0 - - - - - - -
01/02:00am 17.8 N 11 16 1009.0 - 0.0 - - - - - - -
01/01:30am 18.0 N 12 20 1009.3 - 0.0 - - - - - - -
01/01:00am 17.4 N 11 15 1009.4 - 0.0 - - - - - - -
01/12:30am 14.0 N 12 17 1009.7 - 0.0 - - - - - - -
01/12:00am 13.6 N 15 17 1009.9 - 0.0 - - - - - - -
 
Date/Time
EST
Temp

°C
Wind Pressure Rain
since 9am
mm
Weather Cloud Vis
km
Sea
Height
m
Swell
Dir
 
Speed
knots
Gust
knots
hPa Trend Height
m
Period
s
Dir
31/11:30pm 14.3 NNE 13 16 1010.5 - 0.0 - - - - - - -
31/11:00pm 15.1 N 13 16 1011.0 - 0.0 - - - - - - -
31/10:30pm 15.8 N 12 16 1011.5 - 0.0 - - - - - - -
31/10:00pm 16.1 N 12 15 1011.9 - 0.0 - - - - - - -
31/09:30pm 14.7 N 13 16 1012.2 - 0.0 - - - - - - -
31/09:00pm 15.7 N 13 15 1012.6 - 0.0 - - - - - - -
31/08:30pm 14.3 N 13 16 1012.7 - 0.0 - - - - - - -
31/08:00pm 14.8 N 13 15 1012.9 - 0.0 - - - - - - -
31/07:30pm 16.0 N 15 20 1012.9 - 0.0 - - - - - - -
31/07:00pm 15.7 N 15 19 1013.1 - 0.0 - - - - - - -
31/06:30pm 15.0 NNE 13 17 1013.2 - 0.0 - - - - - - -
31/06:00pm 15.0 NNE 12 17 1013.3 - 0.0 - - - - - - -
31/05:30pm 15.1 NNE 11 15 1013.3 - 0.0 - - - - - - -
31/05:00pm 14.9 NNE 14 17 1013.3 - 0.0 - - - - - - -
31/04:30pm 14.5 NE 14 16 1013.3 - 0.0 - - - - - - -
31/04:00pm 14.9 NE 14 17 1013.5 - 0.0 - - - - - - -
31/03:30pm 14.9 NE 14 17 1013.7 - 0.0 - - - - - - -
31/03:00pm 15.4 NNE 12 15 1014.2 - 0.0 - - - - - - -

Other Formats:

Comma delimited format used in spreadsheet applications
http://www.bom.gov.au/fwo/IDT60701/IDT60701.94893.axf

JavaScript Object Notation format (JSON) in row-major order
http://www.bom.gov.au/fwo/IDT60701/IDT60701.94893.json